Time;durP1;ratioP1;P1;durP2;ratioP2;P2;SDS_P1;SDS_P2;PMS_P1;PMS_P2;Temp;Humidity;BMP_temperature;BMP_pressure;BME280_temperature;BME280_humidity;BME280_pressure;Samples;Min_cycle;Max_cycle;Signal;HPM_P1;HPM_P2
2022/01/30 00:01:35;;;;;;;25.00;5.80;;;;;;;;;;5072326;28;20476;-76
2022/01/30 00:04:01;;;;;;;24.63;5.87;;;;;;;;;;5067596;28;20473;-77
2022/01/30 00:06:27;;;;;;;30.33;6.22;;;;;;;;;;5072954;28;20451;-76
2022/01/30 00:08:53;;;;;;;32.08;6.65;;;;;;;;;;5068418;28;20452;-76
2022/01/30 00:11:23;;;;;;;25.80;6.88;;;;;;;;;;5058296;28;20525;-76
2022/01/30 00:13:50;;;;;;;26.63;5.43;;;;;;;;;;5052458;28;20492;-76
2022/01/30 00:16:19;;;;;;;25.38;6.07;;;;;;;;;;5058672;28;20424;-76
2022/01/30 00:19:33;;;;;;;33.38;6.20;;;;;;;;;;5073728;28;20447;-76
2022/01/30 00:21:39;;;;;;;22.35;5.80;;;;;;;;;;5068072;28;20480;-75
2022/01/30 00:24:54;;;;;;;21.40;5.53;;;;;;;;;;5057712;28;20517;-76
2022/01/30 00:26:57;;;;;;;21.08;5.30;;;;;;;;;;5063352;28;20926;-75
2022/01/30 00:29:23;;;;;;;26.98;5.85;;;;;;;;;;5074692;28;20442;-76
2022/01/30 00:31:50;;;;;;;25.60;6.05;;;;;;;;;;5055717;28;20419;-76
2022/01/30 00:34:16;;;;;;;29.77;6.60;;;;;;;;;;5075567;28;20423;-76
2022/01/30 00:36:42;;;;;;;23.52;6.15;;;;;;;;;;5053928;28;20415;-75
2022/01/30 00:39:08;;;;;;;31.53;6.27;;;;;;;;;;5058181;28;20593;-74
2022/01/30 00:41:34;;;;;;;25.55;6.80;;;;;;;;;;5074631;28;20416;-73
2022/01/30 00:44:00;;;;;;;23.98;5.55;;;;;;;;;;5073217;28;20444;-74
2022/01/30 00:46:26;;;;;;;22.80;4.72;;;;;;;;;;5057998;28;20507;-76
2022/01/30 00:48:52;;;;;;;20.90;5.20;;;;;;;;;;5069990;28;20419;-75
2022/01/30 00:51:18;;;;;;;18.00;5.00;;;;;;;;;;5057294;28;20423;-75
2022/01/30 00:53:45;;;;;;;19.52;4.13;;;;;;;;;;5055560;28;20412;-75
2022/01/30 00:56:11;;;;;;;22.38;4.72;;;;;;;;;;5057539;28;20450;-76
2022/01/30 00:58:37;;;;;;;23.02;5.30;;;;;;;;;;5079086;28;20966;-76
2022/01/30 01:01:04;;;;;;;22.10;5.15;;;;;;;;;;5074193;28;20865;-76
2022/01/30 01:03:30;;;;;;;20.17;4.95;;;;;;;;;;5042077;28;21001;-76
2022/01/30 01:05:58;;;;;;;23.23;4.40;;;;;;;;;;5074383;28;20690;-76
2022/01/30 01:08:33;;;;;;;21.88;5.18;;;;;;;;;;5071764;28;20487;-76
2022/01/30 01:24:10;;;;;;;29.67;6.35;;;;;;;;;;5076547;28;20420;-76
2022/01/30 01:26:38;;;;;;;32.28;7.28;;;;;;;;;;5078224;28;20424;-75
2022/01/30 01:29:05;;;;;;;30.73;7.13;;;;;;;;;;5077162;28;20416;-76
2022/01/30 01:31:31;;;;;;;41.30;7.60;;;;;;;;;;5066118;28;21091;-76
2022/01/30 01:36:24;;;;;;;30.23;5.93;;;;;;;;;;5076019;28;20459;-76
2022/01/30 01:38:50;;;;;;;34.05;7.43;;;;;;;;;;5062039;28;20423;-75
2022/01/30 01:41:19;;;;;;;31.05;6.38;;;;;;;;;;5059122;28;20878;-75
2022/01/30 01:43:46;;;;;;;30.90;7.40;;;;;;;;;;5059148;28;20542;-75
2022/01/30 01:46:17;;;;;;;27.40;5.90;;;;;;;;;;5078026;28;20508;-75
2022/01/30 01:48:45;;;;;;;27.00;6.00;;;;;;;;;;5076229;28;20435;-76
2022/01/30 01:51:17;;;;;;;31.25;6.20;;;;;;;;;;5042651;28;20419;-76
2022/01/30 01:53:43;;;;;;;30.70;6.97;;;;;;;;;;5077101;28;20419;-75
2022/01/30 01:56:10;;;;;;;32.47;6.18;;;;;;;;;;5077971;28;20427;-75
2022/01/30 01:58:36;;;;;;;31.33;6.85;;;;;;;;;;5060055;28;20484;-75
2022/01/30 02:01:03;;;;;;;26.50;5.32;;;;;;;;;;5076591;28;20420;-76
2022/01/30 02:03:29;;;;;;;29.27;7.13;;;;;;;;;;5059993;28;20441;-75
2022/01/30 02:05:59;;;;;;;32.58;7.25;;;;;;;;;;5060646;28;20498;-76
2022/01/30 02:08:36;;;;;;;26.95;6.28;;;;;;;;;;5058551;28;20419;-77
2022/01/30 02:11:09;;;;;;;31.00;7.22;;;;;;;;;;5075980;28;20565;-77
2022/01/30 02:27:24;;;;;;;28.63;6.57;;;;;;;;;;5076732;28;20503;-75
2022/01/30 02:29:50;;;;;;;40.03;7.13;;;;;;;;;;5076410;28;20424;-75
2022/01/30 02:32:16;;;;;;;30.45;7.07;;;;;;;;;;5061531;28;20422;-76
2022/01/30 02:34:43;;;;;;;34.30;7.40;;;;;;;;;;5060458;28;20419;-75
2022/01/30 02:37:09;;;;;;;29.73;7.00;;;;;;;;;;5059059;28;20420;-75
2022/01/30 02:39:35;;;;;;;33.20;7.15;;;;;;;;;;5075928;28;20425;-76
2022/01/30 02:42:01;;;;;;;36.53;7.67;;;;;;;;;;5059249;28;20454;-76
2022/01/30 02:44:35;;;;;;;31.17;8.23;;;;;;;;;;5059658;28;20423;-75
2022/01/30 02:47:07;;;;;;;11.23;2.13;;;;;;;;;;5058114;28;20419;-75
2022/01/30 02:50:07;;;;;;;3.80;1.45;;;;;;;;;;5076551;28;20435;-73
2022/01/30 02:52:36;;;;;;;0.35;0.35;;;;;;;;;;5076637;28;20422;-74
2022/01/30 02:55:02;;;;;;;0.60;0.60;;;;;;;;;;5075865;28;20429;-74
2022/01/30 02:57:29;;;;;;;0.88;0.45;;;;;;;;;;5074426;28;20923;-75
2022/01/30 02:59:55;;;;;;;8.65;1.10;;;;;;;;;;5084447;28;20417;-74
2022/01/30 03:02:21;;;;;;;0.70;0.50;;;;;;;;;;5075357;28;20605;-75
2022/01/30 03:04:47;;;;;;;0.60;0.60;;;;;;;;;;5076177;28;20411;-76
2022/01/30 03:07:13;;;;;;;0.60;0.60;;;;;;;;;;5074984;28;21626;-76
2022/01/30 03:09:39;;;;;;;15.60;2.20;;;;;;;;;;5059534;28;20422;-76
2022/01/30 03:12:05;;;;;;;1.40;0.95;;;;;;;;;;5058287;28;20431;-76
2022/01/30 03:14:32;;;;;;;0.40;0.32;;;;;;;;;;5058946;28;20465;-75
2022/01/30 03:16:58;;;;;;;0.90;0.90;;;;;;;;;;5071425;28;20445;-76
2022/01/30 03:19:24;;;;;;;0.57;0.57;;;;;;;;;;5056631;28;20429;-75
2022/01/30 03:21:50;;;;;;;0.60;0.60;;;;;;;;;;5056830;28;20424;-74
2022/01/30 03:24:16;;;;;;;0.40;0.40;;;;;;;;;;5074927;28;21214;-75
2022/01/30 03:26:42;;;;;;;2.30;1.40;;;;;;;;;;5058970;28;20452;-75
2022/01/30 03:29:09;;;;;;;1.03;0.77;;;4.80;99.90;;;;;;5058119;28;20407;-76
2022/01/30 03:31:36;;;;;;;0.47;0.47;;;;;;;;;;5072563;28;20423;-75
2022/01/30 03:34:03;;;;;;;0.70;0.70;;;;;;;;;;5075094;28;20466;-76
2022/01/30 03:36:29;;;;;;;0.32;0.32;;;;;;;;;;5075674;28;20499;-75
2022/01/30 03:38:55;;;;;;;0.80;0.80;;;;;;;;;;5075067;28;20442;-76
2022/01/30 03:41:22;;;;;;;0.50;0.50;;;;;;;;;;5076266;28;20493;-75
2022/01/30 03:43:48;;;;;;;0.88;0.88;;;;;;;;;;5057882;28;20503;-76
2022/01/30 03:46:14;;;;;;;0.70;0.70;;;;;;;;;;5078234;28;20450;-75
2022/01/30 03:48:40;;;;;;;4.50;0.98;;;;;;;;;;5057393;28;20420;-76
2022/01/30 03:51:06;;;;;;;0.20;0.20;;;;;;;;;;5074885;28;20423;-76
2022/01/30 03:53:32;;;;;;;2.40;0.90;;;;;;;;;;5072485;28;20446;-76
2022/01/30 03:55:58;;;;;;;0.30;0.30;;;;;;;;;;5074202;28;20446;-74
2022/01/30 03:58:24;;;;;;;1.80;0.90;;;;;;;;;;5073998;28;21820;-75
2022/01/30 04:00:50;;;;;;;1.95;1.17;;;;;;;;;;5076435;28;20451;-76
2022/01/30 04:03:16;;;;;;;1.05;0.85;;;;;;;;;;5057920;28;20480;-75
2022/01/30 04:05:43;;;;;;;0.40;0.40;;;;;;;;;;5073039;28;20419;-75
2022/01/30 04:08:09;;;;;;;1.85;0.65;;;;;;;;;;5074660;28;20419;-75
2022/01/30 04:10:35;;;;;;;1.00;0.60;;;;;;;;;;5076074;28;20415;-76
2022/01/30 04:13:01;;;;;;;58.57;10.17;;;;;;;;;;5057170;28;20424;-74
2022/01/30 04:15:27;;;;;;;1.63;1.38;;;;;;;;;;5056717;28;20424;-74
2022/01/30 04:17:54;;;;;;;56.37;10.30;;;;;;;;;;5058765;28;20415;-75
2022/01/30 04:20:20;;;;;;;62.95;10.00;;;;;;;;;;5076144;28;20497;-75
2022/01/30 04:22:46;;;;;;;58.03;11.03;;;;;;;;;;5073778;28;20432;-75
2022/01/30 04:25:12;;;;;;;1.40;0.82;;;;;;;;;;5076319;28;20447;-75
2022/01/30 04:27:38;;;;;;;3.22;1.30;;;;;;;;;;5072876;28;20432;-74
2022/01/30 04:30:06;;;;;;;0.47;0.47;;;;;;;;;;5075885;28;20509;-74
2022/01/30 04:32:33;;;;;;;1.40;1.00;;;;;;;;;;5074550;28;20514;-74
2022/01/30 04:35:09;;;;;;;0.85;0.65;;;;;;;;;;5074135;28;20462;-74
2022/01/30 04:37:52;;;;;;;0.82;0.80;;;;;;;;;;5075774;28;20972;-74
2022/01/30 04:55:14;;;;;;;2.92;0.80;;;;;;;;;;5076331;28;20471;-74
2022/01/30 04:57:21;;;;;;;0.63;0.63;;;;;;;;;;5076997;28;20481;-74
2022/01/30 05:00:04;;;;;;;6.80;0.60;;;;;;;;;;5078591;28;20939;-74
2022/01/30 05:07:51;;;;;;;5.20;1.90;;;;;;;;;;5079385;28;21001;-74
2022/01/30 05:10:17;;;;;;;7.90;1.65;;;;;;;;;;5060166;28;20513;-74
2022/01/30 05:12:53;;;;;;;12.65;2.90;;;;;;;;;;5078575;28;20431;-76
2022/01/30 05:15:20;;;;;;;3.10;1.08;;;;;;;;;;5078058;28;21040;-74
2022/01/30 05:17:47;;;;;;;1.60;0.80;;;;;;;;;;5060898;28;20432;-76
2022/01/30 05:20:13;;;;;;;2.40;1.90;;;;;;;;;;5070864;28;20425;-75
2022/01/30 05:22:39;;;;;;;2.90;0.93;;;;;;;;;;5077373;28;20845;-75
2022/01/30 05:25:05;;;;;;;4.35;1.38;;;;;;;;;;5077915;28;21030;-75
2022/01/30 05:27:32;;;;;;;1.40;1.35;;;;;;;;;;5074345;28;20502;-75
2022/01/30 05:29:58;;;;;;;73.40;13.60;;;;;;;;;;5061631;28;20439;-75
2022/01/30 05:32:24;;;;;;;67.82;11.25;;;;;;;;;;5078722;28;20423;-75
2022/01/30 05:34:51;;;;;;;65.38;12.07;;;;;;;;;;5058582;28;20519;-75
2022/01/30 05:37:19;;;;;;;65.50;11.43;;;;;;;;;;5078194;28;20458;-74
2022/01/30 05:39:45;;;;;;;62.67;13.43;;;;;;;;;;5058433;28;20984;-74
2022/01/30 05:42:12;;;;;;;58.50;13.25;;;;;;;;;;5077588;28;20430;-74
2022/01/30 05:44:46;;;;;;;66.60;12.32;;;;;;;;;;5076749;28;20434;-74
2022/01/30 05:47:25;;;;;;;61.60;12.98;;;4.80;99.90;;;;;;5058838;28;20419;-75
2022/01/30 05:49:51;;;;;;;59.63;13.52;;;;;;;;;;5077241;28;20455;-75
2022/01/30 05:52:17;;;;;;;61.37;12.97;;;;;;;;;;5077275;28;20492;-76
2022/01/30 05:54:43;;;;;;;64.28;12.43;;;;;;;;;;5060102;28;20412;-72
2022/01/30 05:57:09;;;;;;;55.83;12.07;;;;;;;;;;5079331;28;20428;-74
2022/01/30 05:59:36;;;;;;;53.28;10.45;;;;;;;;;;5060903;28;20490;-74
2022/01/30 06:02:02;;;;;;;54.75;11.60;;;;;;;;;;5058272;28;20412;-74
2022/01/30 06:04:28;;;;;;;57.50;11.48;;;;;;;;;;5061620;28;20553;-74
2022/01/30 06:07:01;;;;;;;50.33;11.50;;;;;;;;;;5061514;28;20510;-73
2022/01/30 06:09:27;;;;;;;65.00;10.73;;;;;;;;;;5078857;28;20427;-73
2022/01/30 06:11:53;;;;;;;54.13;11.75;;;;;;;;;;5077315;28;20419;-73
2022/01/30 06:14:20;;;;;;;52.45;11.00;;;;;;;;;;5075198;28;20816;-73
2022/01/30 06:16:47;;;;;;;53.47;11.35;;;;;;;;;;5076518;28;20958;-74
2022/01/30 06:19:14;;;;;;;47.45;11.25;;;;;;;;;;5060339;28;20463;-75
2022/01/30 06:21:40;;;;;;;52.72;11.15;;;;;;;;;;5076714;28;20423;-74
2022/01/30 06:24:06;;;;;;;55.10;10.67;;;5.30;99.90;;;;;;5059167;28;20885;-74
2022/01/30 06:26:32;;;;;;;54.15;12.48;;;;;;;;;;5075562;28;20434;-73
2022/01/30 06:28:58;;;;;;;53.45;11.65;;;;;;;;;;5059167;28;20434;-74
2022/01/30 06:31:24;;;;;;;46.28;11.45;;;;;;;;;;5076397;28;20970;-74
2022/01/30 06:33:50;;;;;;;47.22;10.25;;;;;;;;;;5059562;28;20427;-74
2022/01/30 06:36:17;;;;;;;42.80;9.93;;;;;;;;;;5057922;28;20420;-74
2022/01/30 06:38:43;;;;;;;40.85;9.80;;;;;;;;;;5075078;28;20473;-74
2022/01/30 06:41:09;;;;;;;40.65;10.57;;;;;;;;;;5056163;28;20430;-74
2022/01/30 06:43:35;;;;;;;37.78;9.88;;;;;;;;;;5076196;28;20431;-74
2022/01/30 06:46:02;;;;;;;37.60;9.43;;;;;;;;;;5075756;28;20447;-74
2022/01/30 06:48:28;;;;;;;36.70;8.95;;;;;;;;;;5075298;28;20825;-73
2022/01/30 06:50:54;;;;;;;41.22;9.75;;;;;;;;;;5075541;28;20415;-74
2022/01/30 06:53:20;;;;;;;37.87;9.00;;;;;;;;;;5057825;28;20649;-74
2022/01/30 06:55:46;;;;;;;41.22;9.77;;;;;;;;;;5075140;28;20969;-75
2022/01/30 06:58:13;;;;;;;37.80;9.60;;;;;;;;;;5075076;28;20911;-75
2022/01/30 07:00:39;;;;;;;34.15;8.75;;;;;;;;;;5057599;28;20424;-75
2022/01/30 07:03:05;;;;;;;36.42;9.75;;;;;;;;;;5075062;28;20431;-74
2022/01/30 07:05:31;;;;;;;36.55;9.70;;;;;;;;;;5075607;28;20419;-74
2022/01/30 07:07:57;;;;;;;41.13;9.50;;;;;;;;;;5074869;28;20438;-74
2022/01/30 07:10:23;;;;;;;44.20;10.63;;;;;;;;;;5074238;28;20440;-75
2022/01/30 07:12:49;;;;;;;40.33;9.60;;;;;;;;;;5071728;28;20443;-75
2022/01/30 07:15:15;;;;;;;44.22;8.93;;;;;;;;;;5058103;28;20427;-74
2022/01/30 07:17:42;;;;;;;42.38;11.02;;;;;;;;;;5073307;28;20957;-73
2022/01/30 07:20:08;;;;;;;42.35;10.30;;;;;;;;;;5074708;28;20506;-74
2022/01/30 07:22:35;;;;;;;41.00;9.50;;;;;;;;;;5053070;28;20451;-75
2022/01/30 07:25:02;;;;;;;41.70;9.90;;;;;;;;;;5075003;28;20515;-74
2022/01/30 07:27:28;;;;;;;38.28;9.20;;;;;;;;;;5073188;28;20450;-74
2022/01/30 07:29:54;;;;;;;45.53;9.82;;;;;;;;;;5075504;28;20424;-75
2022/01/30 07:32:20;;;;;;;39.45;9.55;;;;;;;;;;5074033;28;20419;-74
2022/01/30 07:34:50;;;;;;;41.10;10.90;;;;;;;;;;5058090;28;20427;-74
2022/01/30 07:37:16;;;;;;;42.15;10.30;;;;;;;;;;5056716;28;20415;-73
2022/01/30 07:39:42;;;;;;;39.70;9.45;;;;;;;;;;5074662;28;20430;-75
2022/01/30 07:42:09;;;;;;;45.63;10.07;;;;;;;;;;5074790;28;20426;-74
2022/01/30 07:44:36;;;;;;;45.93;10.80;;;;;;;;;;5071476;28;20416;-74
2022/01/30 07:47:02;;;;;;;42.60;10.30;;;;;;;;;;5058390;28;20449;-75
2022/01/30 07:49:28;;;;;;;44.30;10.35;;;;;;;;;;5071453;28;20423;-76
2022/01/30 07:51:54;;;;;;;42.40;11.02;;;;;;;;;;5056074;28;20442;-75
2022/01/30 07:54:21;;;;;;;47.13;11.63;;;;;;;;;;5073751;28;20420;-74
2022/01/30 07:56:47;;;;;;;36.70;9.55;;;;;;;;;;5055924;28;20438;-74
2022/01/30 07:59:13;;;;;;;43.50;10.48;;;;;;;;;;5075038;28;20415;-75
2022/01/30 08:01:39;;;;;;;30.02;8.20;;;;;;;;;;5072757;28;20458;-75
2022/01/30 08:04:08;;;;;;;32.85;8.00;;;;;;;;;;5073838;28;20434;-75
2022/01/30 08:06:35;;;;;;;34.10;8.35;;;;;;;;;;5075843;28;20420;-75
2022/01/30 08:09:01;;;;;;;35.05;8.23;;;;;;;;;;5072919;28;20438;-74
2022/01/30 08:11:33;;;;;;;36.67;7.68;;;;;;;;;;5073119;28;20431;-74
2022/01/30 08:13:59;;;;;;;35.30;7.70;;;;;;;;;;5071983;28;20433;-74
2022/01/30 08:16:27;;;;;;;31.13;7.07;;;;;;;;;;5073447;28;20434;-76
2022/01/30 08:18:53;;;;;;;36.35;7.68;;;;;;;;;;5074658;28;20449;-75
2022/01/30 08:21:19;;;;;;;35.47;8.40;;;;;;;;;;5074929;28;20521;-75
2022/01/30 08:23:45;;;;;;;43.83;8.55;;;;;;;;;;5073345;28;20805;-75
2022/01/30 08:26:11;;;;;;;32.10;8.15;;;;;;;;;;5073807;28;20431;-76
2022/01/30 08:28:37;;;;;;;36.90;8.70;;;;;;;;;;5073882;28;20499;-74
2022/01/30 08:31:03;;;;;;;32.53;8.65;;;;;;;;;;5070195;28;20438;-75
2022/01/30 08:33:29;;;;;;;32.90;8.85;;;;;;;;;;5057142;28;20431;-75
2022/01/30 08:35:55;;;;;;;39.15;9.00;;;;;;;;;;5054410;28;20511;-75
2022/01/30 08:38:21;;;;;;;37.67;9.30;;;;;;;;;;5073368;28;20479;-75
2022/01/30 08:40:48;;;;;;;34.50;7.93;;;;;;;;;;5072619;28;20414;-75
2022/01/30 08:43:15;;;;;;;36.22;9.80;;;;;;;;;;5073553;28;20432;-75
2022/01/30 08:45:42;;;;;;;37.45;8.90;;;;;;;;;;5053820;28;20986;-76
2022/01/30 08:48:08;;;;;;;36.85;8.80;;;;;;;;;;5073040;28;21223;-75
2022/01/30 08:50:35;;;;;;;39.63;9.15;;;;;;;;;;5070783;28;20415;-77
2022/01/30 08:53:01;;;;;;;36.97;8.05;;;;;;;;;;5071703;28;20980;-76
2022/01/30 08:55:29;;;;;;;39.20;8.95;;;;;;;;;;5056184;28;20427;-76
2022/01/30 08:57:56;;;;;;;41.20;9.27;;;;;;;;;;5029223;28;20431;-78
2022/01/30 09:00:22;;;;;;;40.42;10.18;;;;;;;;;;5056433;28;20426;-76
2022/01/30 09:02:48;;;;;;;41.15;9.38;;;;;;;;;;5071042;28;20424;-76
2022/01/30 09:05:14;;;;;;;41.03;9.55;;;;;;;;;;5056017;28;20538;-76
2022/01/30 09:07:41;;;;;;;38.85;9.15;;;;;;;;;;5038929;28;20412;-77
2022/01/30 09:10:08;;;;;;;39.00;10.10;;;;;;;;;;5072916;28;20432;-76
2022/01/30 09:12:34;;;;;;;42.25;8.88;;;;;;;;;;5073583;28;20496;-76
2022/01/30 09:15:01;;;;;;;38.93;8.43;;;;;;;;;;5054944;28;20447;-76
2022/01/30 09:17:28;;;;;;;41.72;9.73;;;;;;;;;;5073357;28;20485;-77
2022/01/30 09:19:54;;;;;;;41.13;9.43;;;;;;;;;;5037999;28;20425;-76
2022/01/30 09:22:21;;;;;;;38.63;9.37;;;;;;;;;;5073538;28;20431;-76
2022/01/30 09:24:48;;;;;;;35.15;9.10;;;;;;;;;;5060584;28;20805;-77
2022/01/30 09:27:14;;;;;;;44.08;9.05;;;;;;;;;;5050706;28;20439;-77
2022/01/30 09:29:40;;;;;;;38.03;9.07;;;;;;;;;;5078547;28;20423;-77
2022/01/30 09:32:07;;;;;;;39.13;9.18;;;;;;;;;;5075622;28;20411;-76
2022/01/30 09:34:34;;;;;;;35.83;9.10;;;;;;;;;;5077532;28;20423;-77
2022/01/30 09:37:00;;;;;;;43.15;9.02;;;;;;;;;;5075241;28;20419;-77
2022/01/30 09:39:26;;;;;;;36.67;8.50;;;;;;;;;;5077670;28;20444;-77
2022/01/30 09:41:53;;;;;;;42.35;9.15;;;;;;;;;;5078971;28;20436;-76
2022/01/30 09:44:20;;;;;;;40.42;9.55;;;;;;;;;;5061741;28;21036;-77
2022/01/30 09:46:46;;;;;;;43.80;9.02;;;;;;;;;;5057392;28;20434;-77
2022/01/30 09:49:12;;;;;;;39.73;8.53;;;;;;;;;;5076788;28;20756;-77
2022/01/30 09:51:45;;;;;;;39.78;9.90;;;;;;;;;;5059466;28;20426;-78
2022/01/30 09:54:12;;;;;;;38.47;9.23;;;;;;;;;;5076855;28;20438;-77
2022/01/30 09:56:39;;;;;;;37.13;8.52;;;;;;;;;;5081027;28;20426;-77
2022/01/30 09:59:05;;;;;;;36.00;8.82;;;;;;;;;;5048571;28;20506;-76
2022/01/30 10:01:33;;;;;;;37.35;8.43;;;;;;;;;;5066816;28;20417;-77
2022/01/30 10:03:59;;;;;;;41.80;9.77;;;;;;;;;;5070078;28;20470;-77
2022/01/30 10:06:31;;;;;;;39.60;8.70;;;;;;;;;;5071256;28;20421;-76
2022/01/30 10:09:00;;;;;;;38.75;8.45;;;;;;;;;;5070786;28;20425;-76
2022/01/30 10:11:46;;;;;;;42.63;9.32;;;;;;;;;;5067668;28;20482;-77
2022/01/30 10:14:16;;;;;;;46.67;9.45;;;;;;;;;;5070366;28;20431;-78
2022/01/30 10:16:43;;;;;;;44.50;9.50;;;;;;;;;;5061826;28;20483;-77
2022/01/30 10:19:11;;;;;;;36.70;8.90;;;;;;;;;;5064870;28;20427;-79
2022/01/30 10:21:37;;;;;;;37.13;8.90;;;;;;;;;;5069211;28;20476;-78
2022/01/30 10:24:22;;;;;;;44.43;9.27;;;;;;;;;;5067085;28;20987;-78
2022/01/30 10:26:49;;;;;;;39.95;9.93;;;;;;;;;;5069801;28;20449;-77
2022/01/30 10:29:23;;;;;;;42.97;10.05;;;;;;;;;;5053804;28;20469;-78
2022/01/30 10:32:01;;;;;;;39.13;9.85;;;;;;;;;;5057948;28;20787;-77
2022/01/30 10:34:27;;;;;;;40.13;8.40;;;;;;;;;;5073192;28;20465;-77
2022/01/30 10:37:12;;;;;;;45.25;8.95;;;;;;;;;;5057911;28;20451;-76
2022/01/30 10:39:57;;;;;;;41.10;9.80;;;;;;;;;;5057031;28;20463;-78
2022/01/30 10:42:34;;;;;;;41.40;10.13;;;;;;;;;;5073204;28;21089;-78
2022/01/30 10:45:01;;;;;;;45.83;9.82;;;;;;;;;;5072982;28;21294;-76
2022/01/30 10:47:29;;;;;;;36.35;9.23;;;;;;;;;;5075027;28;20589;-75
2022/01/30 10:49:57;;;;;;;39.45;9.10;;;7.30;99.90;;;;;;5057663;28;20411;-77
2022/01/30 10:52:23;;;;;;;36.03;9.10;;;;;;;;;;5056712;28;20945;-77
2022/01/30 10:54:50;;;;;;;36.80;8.68;;;;;;;;;;5074132;28;20462;-77
2022/01/30 10:57:16;;;;;;;39.28;8.52;;;;;;;;;;5058450;28;20460;-79
2022/01/30 10:59:45;;;;;;;33.55;7.95;;;;;;;;;;5058595;28;20443;-78
2022/01/30 11:02:13;;;;;;;37.45;8.35;;;;;;;;;;5059231;28;20428;-79
2022/01/30 11:04:39;;;;;;;30.83;7.40;;;;;;;;;;5063849;28;20489;-78
2022/01/30 11:07:06;;;;;;;32.72;9.02;;;;;;;;;;5058121;28;21184;-78
2022/01/30 11:09:37;;;;;;;34.03;7.93;;;;;;;;;;5055589;28;20423;-79
2022/01/30 11:12:08;;;;;;;37.92;8.30;;;;;;;;;;5068758;28;20435;-79
2022/01/30 11:14:40;;;;;;;33.97;7.90;;;;;;;;;;5070410;28;20429;-78
2022/01/30 11:19:35;;;;;;;37.50;8.45;;;;;;;;;;5074628;28;20431;-79
2022/01/30 11:22:03;;;;;;;34.05;8.15;;;;;;;;;;5074902;28;20547;-79
2022/01/30 11:24:33;;;;;;;30.95;7.50;;;;;;;;;;5072603;28;20556;-79
2022/01/30 11:27:00;;;;;;;31.88;7.90;;;;;;;;;;5077149;28;20443;-79
2022/01/30 11:29:26;;;;;;;28.73;7.90;;;;;;;;;;5063048;28;20537;-77
2022/01/30 11:31:52;;;;;;;27.73;7.28;;;;;;;;;;5082737;28;20403;-79
2022/01/30 11:34:19;;;;;;;27.08;6.20;;;;;;;;;;5072523;28;20419;-81
2022/01/30 11:36:48;;;;;;;32.63;7.30;;;;;;;;;;5059256;28;20417;-80
2022/01/30 11:39:16;;;;;;;31.25;7.97;;;;;;;;;;5074195;28;20475;-80
2022/01/30 11:41:42;;;;;;;40.92;7.97;;;;;;;;;;5073469;28;20419;-80
2022/01/30 11:44:18;;;;;;;31.73;7.57;;;;;;;;;;5074280;28;20463;-78
2022/01/30 11:47:04;;;;;;;31.20;7.40;;;;;;;;;;5056203;28;20486;-79
2022/01/30 11:49:46;;;;;;;32.80;7.43;;;;;;;;;;5048381;28;20433;-79
2022/01/30 11:52:13;;;;;;;33.90;7.35;;;;;;;;;;5077127;28;21128;-79
2022/01/30 11:54:43;;;;;;;33.35;6.78;;;;;;;;;;5058883;28;20518;-80
2022/01/30 11:57:21;;;;;;;33.22;7.70;;;;;;;;;;5057771;28;20453;-79
2022/01/30 11:59:48;;;;;;;32.38;8.20;;;;;;;;;;5055733;28;20538;-79
2022/01/30 12:02:22;;;;;;;38.37;8.37;;;;;;;;;;5053744;28;20950;-79
2022/01/30 12:04:57;;;;;;;30.67;7.07;;;;;;;;;;5071223;28;21032;-79
2022/01/30 12:07:49;;;;;;;31.90;7.32;;;;;;;;;;5045607;28;20436;-79
2022/01/30 12:10:21;;;;;;;32.97;6.97;;;;;;;;;;5061316;28;20469;-79
2022/01/30 12:12:53;;;;;;;27.85;7.38;;;;;;;;;;5071393;28;20471;-79
2022/01/30 12:15:35;;;;;;;39.53;7.95;;;;;;;;;;5050335;28;20433;-80
2022/01/30 12:18:01;;;;;;;33.57;7.77;;;;;;;;;;5057803;28;21980;-78
2022/01/30 12:20:31;;;;;;;37.63;8.20;;;7.90;99.90;;;;;;5046004;28;20514;-79
2022/01/30 12:22:57;;;;;;;36.17;7.82;;;;;;;;;;5072484;28;20431;-81
2022/01/30 12:25:29;;;;;;;37.20;8.10;;;;;;;;;;5073459;28;20427;-79
2022/01/30 12:27:57;;;;;;;37.28;8.07;;;;;;;;;;5073891;28;20442;-80
2022/01/30 12:30:30;;;;;;;34.80;8.40;;;;;;;;;;5073847;28;20498;-80
2022/01/30 12:32:56;;;;;;;28.30;7.33;;;;;;;;;;5073385;28;20436;-78
2022/01/30 12:35:22;;;;;;;33.88;8.88;;;;;;;;;;5054364;28;20485;-79
2022/01/30 12:37:49;;;;;;;36.63;8.47;;;;;;;;;;5053064;28;20461;-79
2022/01/30 12:40:16;;;;;;;34.78;8.63;;;;;;;;;;5066422;28;20432;-78
2022/01/30 12:42:42;;;;;;;33.67;8.82;;;;;;;;;;5057557;28;20430;-77
2022/01/30 12:45:09;;;;;;;34.70;8.35;;;;;;;;;;5051596;28;20444;-78
2022/01/30 12:47:49;;;;;;;38.92;9.40;;;8.00;99.90;;;;;;5055975;28;20468;-79
2022/01/30 12:50:16;;;;;;;34.70;10.50;;;;;;;;;;5058480;28;20446;-80
2022/01/30 12:52:48;;;;;;;37.88;9.00;;;;;;;;;;5061341;28;20488;-79
2022/01/30 12:55:16;;;;;;;34.72;8.48;;;;;;;;;;5051351;28;20477;-79
2022/01/30 12:57:42;;;;;;;33.47;7.60;;;;;;;;;;5067213;28;20443;-80
2022/01/30 13:00:11;;;;;;;34.95;8.95;;;;;;;;;;5084727;28;20423;-79
2022/01/30 13:02:37;;;;;;;36.65;7.82;;;;;;;;;;5071627;28;20442;-77
2022/01/30 13:05:05;;;;;;;35.40;8.50;;;;;;;;;;5069744;28;20515;-78
2022/01/30 13:07:31;;;;;;;32.78;6.85;;;;;;;;;;5071952;28;20491;-78
2022/01/30 13:10:15;;;;;;;31.45;7.05;;;;;;;;;;5070613;28;20438;-77
2022/01/30 13:12:43;;;;;;;32.72;7.45;;;;;;;;;;5072377;28;20627;-79
2022/01/30 13:15:10;;;;;;;39.88;7.28;;;;;;;;;;5075367;28;20416;-79
2022/01/30 13:17:36;;;;;;;28.73;6.72;;;;;;;;;;5073572;28;20438;-79
2022/01/30 13:20:03;;;;;;;25.38;6.60;;;;;;;;;;5069279;28;20433;-79
2022/01/30 13:22:36;;;;;;;23.55;6.35;;;;;;;;;;5058571;28;20426;-79
2022/01/30 13:25:06;;;;;;;26.67;6.13;;;;;;;;;;5075058;28;20524;-79
2022/01/30 13:27:32;;;;;;;30.63;6.50;;;;;;;;;;5058276;28;20463;-79
2022/01/30 13:29:59;;;;;;;25.17;5.97;;;;;;;;;;5068293;28;20665;-80
2022/01/30 13:32:26;;;;;;;26.17;6.40;;;;;;;;;;5077269;28;20427;-80
2022/01/30 13:34:58;;;;;;;28.80;7.05;;;;;;;;;;5078269;28;20407;-80
2022/01/30 13:37:25;;;;;;;34.83;7.20;;;;;;;;;;5038355;28;20458;-80
2022/01/30 13:44:52;;;;;;;33.15;7.53;;;;;;;;;;5073515;28;21256;-80
2022/01/30 13:47:19;;;;;;;29.42;6.63;;;;;;;;;;5074226;28;20433;-78
2022/01/30 13:49:49;;;;;;;32.65;6.97;;;;;;;;;;5078076;28;20451;-80
2022/01/30 13:52:16;;;;;;;27.83;7.53;;;;;;;;;;5074991;28;20416;-80
2022/01/30 13:54:42;;;;;;;39.30;8.13;;;;;;;;;;5055378;28;20437;-80
2022/01/30 13:57:09;;;;;;;30.43;7.13;;;;;;;;;;5072789;28;20506;-79
2022/01/30 13:59:36;;;;;;;31.25;7.07;;;;;;;;;;5054584;28;20427;-79
2022/01/30 14:02:04;;;;;;;37.95;8.00;;;7.70;99.90;;;;;;5056781;28;20422;-80
2022/01/30 14:04:31;;;;;;;33.95;7.40;;;;;;;;;;5053187;28;20430;-79
2022/01/30 14:07:00;;;;;;;30.67;7.43;;;;;;;;;;5072672;28;20531;-78
2022/01/30 14:09:43;;;;;;;35.47;8.10;;;7.80;99.90;;;;;;5056817;28;20547;-80
2022/01/30 14:12:11;;;;;;;31.98;7.50;;;;;;;;;;5071008;28;20441;-78
2022/01/30 14:14:39;;;;;;;34.50;7.10;;;;;;;;;;5069447;28;20459;-79
2022/01/30 14:17:07;;;;;;;32.38;7.35;;;;;;;;;;5074805;28;20445;-79
2022/01/30 14:19:41;;;;;;;31.38;7.85;;;;;;;;;;5060578;28;20427;-80
2022/01/30 14:22:25;;;;;;;25.90;6.55;;;;;;;;;;5073122;28;20434;-80
2022/01/30 14:24:57;;;;;;;26.73;6.20;;;7.60;99.90;;;;;;5075660;28;20723;-80
2022/01/30 14:27:24;;;;;;;29.77;7.35;;;;;;;;;;5069033;28;20435;-80
2022/01/30 14:29:58;;;;;;;27.70;6.05;;;;;;;;;;5069784;28;20485;-80
2022/01/30 14:32:30;;;;;;;25.42;5.95;;;;;;;;;;5075028;28;20434;-80
2022/01/30 14:34:56;;;;;;;25.90;6.00;;;;;;;;;;5079387;28;20440;-81
2022/01/30 14:37:22;;;;;;;30.08;6.57;;;;;;;;;;5073824;28;20415;-80
2022/01/30 14:39:59;;;;;;;36.38;6.32;;;;;;;;;;5075162;28;20431;-80
2022/01/30 14:42:25;;;;;;;28.83;6.90;;;;;;;;;;5070698;28;20807;-80
2022/01/30 14:44:52;;;;;;;33.08;7.38;;;;;;;;;;5066669;28;20904;-80
2022/01/30 14:47:18;;;;;;;31.33;7.00;;;;;;;;;;5073799;28;20466;-80
2022/01/30 14:49:45;;;;;;;27.85;6.65;;;;;;;;;;5057464;28;20419;-80
2022/01/30 14:52:11;;;;;;;30.60;6.97;;;;;;;;;;5067918;28;20442;-80
2022/01/30 14:54:37;;;;;;;30.83;7.10;;;;;;;;;;5070790;28;20954;-78
2022/01/30 14:57:04;;;;;;;26.73;7.00;;;;;;;;;;5071720;28;20450;-80
2022/01/30 14:59:30;;;;;;;32.33;8.50;;;;;;;;;;5075759;28;21164;-81
2022/01/30 15:01:57;;;;;;;30.38;7.55;;;;;;;;;;5057614;28;20422;-81
2022/01/30 15:04:23;;;;;;;26.02;7.80;;;;;;;;;;5059381;28;20424;-79
2022/01/30 15:06:49;;;;;;;27.45;6.47;;;;;;;;;;5062703;28;20419;-80
2022/01/30 15:09:15;;;;;;;30.00;6.70;;;;;;;;;;5056811;28;20559;-79
2022/01/30 15:11:41;;;;;;;30.75;8.52;;;;;;;;;;5074836;28;20416;-80
2022/01/30 15:14:09;;;;;;;28.60;6.63;;;;;;;;;;5070333;28;20408;-80
2022/01/30 15:16:46;;;;;;;32.42;7.82;;;;;;;;;;5065630;28;20438;-79
2022/01/30 15:19:14;;;;;;;31.05;7.40;;;;;;;;;;5062846;28;20423;-80
2022/01/30 15:21:40;;;;;;;34.45;6.85;;;;;;;;;;5049300;28;20485;-80
2022/01/30 15:24:08;;;;;;;26.33;6.10;;;;;;;;;;5059111;28;20513;-80
2022/01/30 15:26:34;;;;;;;26.85;6.35;;;;;;;;;;5039422;28;20446;-80
2022/01/30 15:29:01;;;;;;;28.40;6.43;;;;;;;;;;5060730;28;20500;-80